createdAt,value
2024-01-26T00:01:58.191Z,17.87
2024-01-26T00:04:27.950Z,20.37
2024-01-26T00:06:57.217Z,15.07
2024-01-26T00:09:25.489Z,14.17
2024-01-26T00:11:53.648Z,18.30
2024-01-26T00:14:21.829Z,16.80
2024-01-26T00:16:50.024Z,21.50
2024-01-26T00:19:18.191Z,20.27
2024-01-26T00:21:47.806Z,23.70
2024-01-26T00:24:16.027Z,17.70
2024-01-26T00:26:44.233Z,22.93
2024-01-26T00:29:12.424Z,18.53
2024-01-26T00:31:40.582Z,17.13
2024-01-26T00:34:08.875Z,16.23
2024-01-26T00:36:37.119Z,17.20
2024-01-26T00:39:08.028Z,13.83
2024-01-26T00:41:36.188Z,12.30
2024-01-26T00:44:04.472Z,12.10
2024-01-26T00:46:32.675Z,11.37
2024-01-26T00:49:01.067Z,11.23
2024-01-26T00:51:29.272Z,10.60
2024-01-26T00:53:57.473Z,9.90
2024-01-26T00:56:27.039Z,11.10
2024-01-26T00:58:55.221Z,24.27
2024-01-26T01:01:24.273Z,11.70
2024-01-26T01:03:52.535Z,11.40
2024-01-26T01:06:20.743Z,12.47
2024-01-26T01:08:48.935Z,12.27
2024-01-26T01:11:17.071Z,13.27
2024-01-26T01:13:47.108Z,9.83
2024-01-26T01:16:16.427Z,11.07
2024-01-26T01:18:44.708Z,12.50
2024-01-26T01:21:12.881Z,11.53
2024-01-26T01:23:41.933Z,12.27
2024-01-26T01:26:10.394Z,14.63
2024-01-26T01:28:38.581Z,12.13
2024-01-26T01:31:08.112Z,10.27
2024-01-26T01:33:36.705Z,13.13
2024-01-26T01:36:05.530Z,13.87
2024-01-26T01:38:33.696Z,11.93
2024-01-26T01:41:01.927Z,14.43
2024-01-26T01:43:30.265Z,14.10
2024-01-26T01:45:58.530Z,14.77
2024-01-26T01:48:28.555Z,12.37
2024-01-26T01:50:57.228Z,17.30
2024-01-26T01:53:26.993Z,12.10
2024-01-26T01:55:55.716Z,13.80
2024-01-26T01:58:24.898Z,12.27
2024-01-26T02:00:53.212Z,14.73
2024-01-26T02:03:22.816Z,14.87
2024-01-26T02:05:53.766Z,16.37
2024-01-26T02:08:21.996Z,16.67
2024-01-26T02:10:50.199Z,12.80
2024-01-26T02:13:18.378Z,14.47
2024-01-26T02:15:46.659Z,16.03
2024-01-26T02:18:16.813Z,14.23
2024-01-26T02:20:52.122Z,14.20
2024-01-26T02:23:25.409Z,16.37
2024-01-26T02:25:53.802Z,12.30
2024-01-26T02:28:22.133Z,12.13
2024-01-26T02:30:50.309Z,16.43
2024-01-26T02:33:18.666Z,16.70
2024-01-26T02:35:47.020Z,17.53
2024-01-26T02:38:15.272Z,12.33
2024-01-26T02:40:45.003Z,13.07
2024-01-26T02:43:13.601Z,12.90
2024-01-26T02:45:45.105Z,13.10
2024-01-26T02:48:13.495Z,13.03
2024-01-26T02:50:41.865Z,10.63
2024-01-26T02:53:10.058Z,13.07
2024-01-26T02:55:38.460Z,14.90
2024-01-26T02:58:08.130Z,10.40
2024-01-26T03:00:36.406Z,10.93
2024-01-26T03:03:04.961Z,10.73
2024-01-26T03:05:33.386Z,12.07
2024-01-26T03:08:01.674Z,13.80
2024-01-26T03:10:29.893Z,13.37
2024-01-26T03:12:58.090Z,16.27
2024-01-26T03:15:27.671Z,15.43
2024-01-26T03:17:55.918Z,11.50
2024-01-26T03:20:24.131Z,14.70
2024-01-26T03:22:52.303Z,15.77
2024-01-26T03:25:20.658Z,14.80
2024-01-26T03:27:48.999Z,13.77
2024-01-26T03:30:16.322Z,12.60
2024-01-26T03:32:45.949Z,13.27
2024-01-26T03:35:14.266Z,15.93
2024-01-26T03:37:43.124Z,15.97
2024-01-26T03:40:11.756Z,15.67
2024-01-26T03:42:39.910Z,14.33
2024-01-26T03:45:09.493Z,12.13
2024-01-26T03:47:37.820Z,15.10
2024-01-26T03:50:07.993Z,13.83
2024-01-26T03:52:36.130Z,16.33
2024-01-26T03:55:09.778Z,14.33
2024-01-26T03:57:41.193Z,13.70
2024-01-26T04:00:12.311Z,14.77
2024-01-26T04:02:40.641Z,15.00
2024-01-26T04:05:11.091Z,17.50
2024-01-26T04:07:39.311Z,16.83
2024-01-26T04:10:08.606Z,18.27
2024-01-26T04:12:36.791Z,16.70
2024-01-26T04:15:05.394Z,14.73
2024-01-26T04:17:33.751Z,16.70
2024-01-26T04:20:02.054Z,14.63
2024-01-26T04:22:31.632Z,16.80
2024-01-26T04:24:59.754Z,16.43
2024-01-26T04:27:27.889Z,19.30
2024-01-26T04:29:57.291Z,20.93
2024-01-26T04:32:25.646Z,17.07
2024-01-26T04:34:53.981Z,15.10
2024-01-26T04:37:22.663Z,20.60
2024-01-26T04:39:52.352Z,17.17
2024-01-26T04:42:23.240Z,17.63
2024-01-26T04:44:52.577Z,15.53
2024-01-26T04:47:20.831Z,18.73
2024-01-26T04:49:49.113Z,18.93
2024-01-26T04:52:17.383Z,15.93
2024-01-26T04:54:47.935Z,19.00
2024-01-26T04:57:17.597Z,17.10
2024-01-26T04:59:45.933Z,18.63
2024-01-26T05:02:14.671Z,23.67
2024-01-26T05:04:42.842Z,17.73
2024-01-26T05:07:11.907Z,16.50
2024-01-26T05:09:40.361Z,15.90
2024-01-26T05:12:09.240Z,17.53
2024-01-26T05:14:38.970Z,15.77
2024-01-26T05:17:07.390Z,20.33
2024-01-26T05:19:35.600Z,20.27
2024-01-26T05:22:03.911Z,20.87
2024-01-26T05:24:32.031Z,15.50
2024-01-26T05:27:00.196Z,15.87
2024-01-26T05:29:28.401Z,19.40
2024-01-26T05:31:57.926Z,18.10
2024-01-26T05:34:26.267Z,16.90
2024-01-26T05:36:54.486Z,19.40
2024-01-26T05:39:22.706Z,16.57
2024-01-26T05:41:50.959Z,16.33
2024-01-26T05:44:19.319Z,17.80
2024-01-26T05:46:47.446Z,14.43
2024-01-26T05:49:17.369Z,14.80
2024-01-26T05:51:45.937Z,14.37
2024-01-26T05:54:15.191Z,13.93
2024-01-26T05:56:44.051Z,13.07
2024-01-26T05:59:12.346Z,11.50
2024-01-26T06:01:40.428Z,14.87
2024-01-26T06:04:09.272Z,12.10
2024-01-26T06:06:39.385Z,10.43
2024-01-26T06:09:08.748Z,9.97
2024-01-26T06:11:37.095Z,11.47
2024-01-26T06:14:05.338Z,13.70
2024-01-26T06:16:33.599Z,10.80
2024-01-26T06:19:05.070Z,12.10
2024-01-26T06:21:33.769Z,14.47
2024-01-26T06:24:03.560Z,14.73
2024-01-26T06:26:31.831Z,14.17
2024-01-26T06:29:00.223Z,13.73
2024-01-26T06:31:28.812Z,14.93
2024-01-26T06:33:57.517Z,14.43
2024-01-26T06:36:25.834Z,14.60
2024-01-26T06:38:54.050Z,12.03
2024-01-26T06:41:24.290Z,15.57
2024-01-26T06:43:53.131Z,16.17
2024-01-26T06:46:23.969Z,10.30
2024-01-26T06:48:52.920Z,11.03
2024-01-26T06:51:21.302Z,10.53
2024-01-26T06:53:49.656Z,9.17
2024-01-26T06:56:17.933Z,9.23
2024-01-26T06:58:47.895Z,10.03
2024-01-26T07:01:16.305Z,9.00
2024-01-26T07:03:44.758Z,8.23
2024-01-26T07:06:13.350Z,8.70
2024-01-26T07:08:43.760Z,13.27
2024-01-26T07:11:13.301Z,9.17
2024-01-26T07:13:41.475Z,10.50
2024-01-26T07:16:11.890Z,9.93
2024-01-26T07:18:40.214Z,7.03
2024-01-26T07:21:09.512Z,6.67
2024-01-26T07:23:40.929Z,7.00
2024-01-26T07:26:09.233Z,8.50
2024-01-26T07:28:37.445Z,7.70
2024-01-26T07:31:05.797Z,6.77
2024-01-26T07:33:35.563Z,7.47
2024-01-26T07:36:03.821Z,9.30
2024-01-26T07:38:32.139Z,7.87
2024-01-26T07:41:00.341Z,6.00
2024-01-26T07:43:28.730Z,6.27
2024-01-26T07:45:57.255Z,7.00
2024-01-26T07:48:25.496Z,10.53
2024-01-26T07:50:55.166Z,7.40
2024-01-26T07:53:23.396Z,8.87
2024-01-26T07:55:51.746Z,9.13
2024-01-26T07:58:20.152Z,8.07
2024-01-26T08:00:50.413Z,12.87
2024-01-26T08:03:18.801Z,8.50
2024-01-26T08:05:47.202Z,7.20
2024-01-26T08:08:16.997Z,10.80
2024-01-26T08:10:45.424Z,9.73
2024-01-26T08:13:13.748Z,8.93
2024-01-26T08:15:42.940Z,7.97
2024-01-26T08:18:11.533Z,13.17
2024-01-26T08:20:39.817Z,9.47
2024-01-26T08:23:08.185Z,7.43
2024-01-26T08:25:37.806Z,9.30
2024-01-26T08:28:07.677Z,8.70
2024-01-26T08:30:36.601Z,10.33
2024-01-26T08:33:05.452Z,10.40
2024-01-26T08:35:34.126Z,9.80
2024-01-26T08:38:02.462Z,12.17
2024-01-26T08:40:30.737Z,11.67
2024-01-26T08:43:00.284Z,9.23
2024-01-26T08:45:28.530Z,9.07
2024-01-26T08:47:56.821Z,13.10
2024-01-26T08:50:25.044Z,12.87
2024-01-26T08:52:53.316Z,10.10
2024-01-26T08:55:21.465Z,12.67
2024-01-26T08:57:50.072Z,7.83
2024-01-26T09:00:20.849Z,14.47
2024-01-26T09:02:49.197Z,8.90
2024-01-26T09:05:17.534Z,9.40
2024-01-26T09:07:45.769Z,4.63
2024-01-26T09:10:19.221Z,10.50
2024-01-26T09:12:47.972Z,8.60
2024-01-26T09:15:16.779Z,9.23
2024-01-26T09:17:46.542Z,7.87
2024-01-26T09:20:15.594Z,12.17
2024-01-26T09:22:44.780Z,7.67
2024-01-26T09:25:13.079Z,9.73
2024-01-26T09:27:43.923Z,8.33
2024-01-26T09:30:12.904Z,4.63
2024-01-26T09:32:41.176Z,9.43
2024-01-26T09:35:11.387Z,7.33
2024-01-26T09:37:39.827Z,9.47
2024-01-26T09:40:10.594Z,7.93
2024-01-26T09:42:38.965Z,10.20
2024-01-26T09:45:08.381Z,11.53
2024-01-26T09:47:37.972Z,9.87
2024-01-26T09:50:07.379Z,10.00
2024-01-26T09:52:38.316Z,18.23
2024-01-26T09:55:08.261Z,10.67
2024-01-26T09:57:36.462Z,17.97
2024-01-26T10:00:14.076Z,7.37
2024-01-26T10:02:47.023Z,9.47
2024-01-26T10:05:17.789Z,9.20
2024-01-26T10:07:47.613Z,14.27
2024-01-26T10:10:16.131Z,8.03
2024-01-26T10:12:44.663Z,4.03
2024-01-26T10:15:15.273Z,9.53
2024-01-26T10:17:46.131Z,7.10
2024-01-26T10:20:19.349Z,5.37
2024-01-26T10:22:49.611Z,4.50
2024-01-26T10:25:17.946Z,7.90
2024-01-26T10:27:46.725Z,4.77
2024-01-26T10:30:15.887Z,5.67
2024-01-26T10:32:46.163Z,3.87
2024-01-26T10:35:19.526Z,4.67
2024-01-26T10:37:49.879Z,7.50
2024-01-26T10:40:20.887Z,3.40
2024-01-26T10:42:49.879Z,7.53
2024-01-26T10:45:19.244Z,5.80
2024-01-26T10:47:48.940Z,6.10
2024-01-26T10:50:18.058Z,6.53
2024-01-26T10:52:49.411Z,6.67
2024-01-26T10:55:19.561Z,4.50
2024-01-26T10:57:47.728Z,1.87
2024-01-26T11:00:16.986Z,9.53
2024-01-26T11:02:46.091Z,5.40
2024-01-26T11:05:16.738Z,3.50
2024-01-26T11:07:48.515Z,4.43
2024-01-26T11:10:22.121Z,8.90
2024-01-26T11:13:00.825Z,6.27
2024-01-26T11:15:29.041Z,4.87
2024-01-26T11:17:58.510Z,3.37
2024-01-26T11:20:29.458Z,4.57
2024-01-26T11:23:01.637Z,3.83
2024-01-26T11:25:37.296Z,10.17
2024-01-26T11:28:07.243Z,7.43
2024-01-26T11:30:36.854Z,4.13
2024-01-26T11:33:16.351Z,7.17
2024-01-26T11:35:44.700Z,5.53
2024-01-26T11:38:18.616Z,6.23
2024-01-26T11:40:48.381Z,8.57
2024-01-26T11:43:16.538Z,1.70
2024-01-26T11:45:45.684Z,5.87
2024-01-26T11:48:15.924Z,7.57
2024-01-26T11:50:45.999Z,10.27
2024-01-26T11:53:17.347Z,8.10
2024-01-26T11:55:49.242Z,3.50
2024-01-26T11:58:22.686Z,5.27
2024-01-26T12:00:51.129Z,6.60
2024-01-26T12:03:21.854Z,3.20
2024-01-26T12:05:51.228Z,6.83
2024-01-26T12:08:20.214Z,6.93
2024-01-26T12:10:49.993Z,7.73
2024-01-26T12:13:20.125Z,5.53
2024-01-26T12:15:48.328Z,4.20
2024-01-26T12:18:18.415Z,7.43
2024-01-26T12:20:52.798Z,3.20
2024-01-26T12:23:22.450Z,3.97
2024-01-26T12:25:53.382Z,6.40
2024-01-26T12:28:22.017Z,5.77
2024-01-26T12:30:50.735Z,5.80
2024-01-26T12:33:19.265Z,4.80
2024-01-26T12:35:49.094Z,2.60
2024-01-26T12:38:18.131Z,7.63
2024-01-26T12:40:48.233Z,6.27
2024-01-26T12:43:18.060Z,9.90
2024-01-26T12:45:46.245Z,7.93
2024-01-26T12:48:14.785Z,8.10
2024-01-26T12:50:43.209Z,13.97
2024-01-26T12:53:11.755Z,7.23
2024-01-26T12:55:40.025Z,8.37
2024-01-26T12:58:08.799Z,6.50
2024-01-26T13:00:38.613Z,7.87
2024-01-26T13:03:07.439Z,8.20
2024-01-26T13:05:35.975Z,6.97
2024-01-26T13:08:04.365Z,5.47
2024-01-26T13:10:34.415Z,6.13
2024-01-26T13:13:02.664Z,7.47
2024-01-26T13:15:30.853Z,8.10
2024-01-26T13:18:00.980Z,4.20
2024-01-26T13:20:30.079Z,3.40
2024-01-26T13:22:58.414Z,6.83
2024-01-26T13:25:27.977Z,9.03
2024-01-26T13:27:56.180Z,4.33
2024-01-26T13:30:27.397Z,4.33
2024-01-26T13:32:56.695Z,5.50
2024-01-26T13:35:27.065Z,9.23
2024-01-26T13:37:55.278Z,2.13
2024-01-26T13:40:23.515Z,7.03
2024-01-26T13:42:51.776Z,7.37
2024-01-26T13:45:21.409Z,6.03
2024-01-26T13:47:53.872Z,6.00
2024-01-26T13:50:28.354Z,5.73
2024-01-26T13:52:56.657Z,5.10
2024-01-26T13:55:24.786Z,7.13
2024-01-26T13:57:52.992Z,7.37
2024-01-26T14:00:23.148Z,6.43
2024-01-26T14:02:52.546Z,7.53
2024-01-26T14:05:21.521Z,8.73
2024-01-26T14:07:51.638Z,5.83
2024-01-26T14:10:20.259Z,5.53
2024-01-26T14:12:48.477Z,6.30
2024-01-26T14:15:17.196Z,4.77
2024-01-26T14:17:45.716Z,5.23
2024-01-26T14:20:14.188Z,5.63
2024-01-26T14:22:42.405Z,5.63
2024-01-26T14:25:12.253Z,4.77
2024-01-26T14:27:40.415Z,8.50
2024-01-26T14:30:12.807Z,7.60
2024-01-26T14:32:41.351Z,10.10
2024-01-26T14:35:12.278Z,12.03
2024-01-26T14:37:41.964Z,10.63
2024-01-26T14:40:18.656Z,5.57
2024-01-26T14:42:49.075Z,10.00
2024-01-26T14:45:18.044Z,11.97
2024-01-26T14:47:47.236Z,7.57
2024-01-26T14:50:17.178Z,5.97
2024-01-26T14:52:47.199Z,8.37
2024-01-26T14:55:17.059Z,7.47
2024-01-26T14:57:46.842Z,9.33
2024-01-26T15:00:18.596Z,12.13
2024-01-26T15:02:47.189Z,6.77
2024-01-26T15:05:15.480Z,5.83
2024-01-26T15:07:49.369Z,8.27
2024-01-26T15:10:22.106Z,7.53
2024-01-26T15:12:50.415Z,9.20
2024-01-26T15:15:19.983Z,6.43
2024-01-26T15:17:50.027Z,9.80
2024-01-26T15:20:19.196Z,10.37
2024-01-26T15:22:50.295Z,5.10
2024-01-26T15:25:20.248Z,6.80
2024-01-26T15:27:48.470Z,6.93
2024-01-26T15:30:18.253Z,7.80
2024-01-26T15:32:46.914Z,6.87
2024-01-26T15:35:16.102Z,13.83
2024-01-26T15:37:46.987Z,6.40
2024-01-26T15:40:16.558Z,5.90
2024-01-26T15:42:46.290Z,7.57
2024-01-26T15:45:15.726Z,8.43
2024-01-26T15:47:48.465Z,5.43
2024-01-26T15:50:16.871Z,6.23
2024-01-26T15:52:46.788Z,4.47
2024-01-26T15:55:16.598Z,9.00
2024-01-26T15:57:46.853Z,7.90
2024-01-26T16:00:16.386Z,8.50
2024-01-26T16:02:45.959Z,12.57
2024-01-26T16:05:14.398Z,5.53
2024-01-26T16:07:42.860Z,12.53
2024-01-26T16:10:11.756Z,10.73
2024-01-26T16:12:40.409Z,9.00
2024-01-26T16:15:11.948Z,12.17
2024-01-26T16:17:40.735Z,7.57
2024-01-26T16:20:12.475Z,7.07
2024-01-26T16:22:40.743Z,10.70
2024-01-26T16:25:09.724Z,11.47
2024-01-26T16:27:38.007Z,10.77
2024-01-26T16:30:07.752Z,8.53
2024-01-26T16:32:37.309Z,10.53
2024-01-26T16:35:07.030Z,6.33
2024-01-26T16:37:35.615Z,9.30
2024-01-26T16:40:05.284Z,5.93
2024-01-26T16:42:33.588Z,11.07
2024-01-26T16:45:03.405Z,12.50
2024-01-26T16:47:31.633Z,7.37
2024-01-26T16:50:01.292Z,15.03
2024-01-26T16:52:29.480Z,11.50
2024-01-26T16:54:59.513Z,16.23
2024-01-26T16:57:27.822Z,14.57
2024-01-26T16:59:56.045Z,14.40
2024-01-26T17:02:25.846Z,12.40
2024-01-26T17:04:54.696Z,9.40
2024-01-26T17:07:24.909Z,12.30
2024-01-26T17:09:53.031Z,9.77
2024-01-26T17:12:23.567Z,19.27
2024-01-26T17:14:52.034Z,21.07
2024-01-26T17:17:20.248Z,15.47
2024-01-26T17:19:52.345Z,8.53
2024-01-26T17:22:20.977Z,8.83
2024-01-26T17:24:50.628Z,11.00
2024-01-26T17:27:19.879Z,9.37
2024-01-26T17:29:48.392Z,13.90
2024-01-26T17:32:16.656Z,8.00
2024-01-26T17:34:44.870Z,14.17
2024-01-26T17:37:13.211Z,14.80
2024-01-26T17:39:51.670Z,11.07
2024-01-26T17:42:29.370Z,10.30
2024-01-26T17:44:57.611Z,8.80
2024-01-26T17:47:25.886Z,13.40
2024-01-26T17:49:54.887Z,12.10
2024-01-26T17:52:24.601Z,11.97
2024-01-26T17:54:52.823Z,18.23
2024-01-26T17:57:21.051Z,11.97
2024-01-26T17:59:50.721Z,11.70
2024-01-26T18:02:18.921Z,12.50
2024-01-26T18:04:47.077Z,13.10
2024-01-26T18:07:15.218Z,15.53
2024-01-26T18:09:43.436Z,11.27
2024-01-26T18:12:11.607Z,16.10
2024-01-26T18:14:39.925Z,17.10
2024-01-26T18:17:09.960Z,15.33
2024-01-26T18:19:38.355Z,11.07
2024-01-26T18:22:06.751Z,9.57
2024-01-26T18:24:34.915Z,16.97
2024-01-26T18:27:03.941Z,15.37
2024-01-26T18:29:32.258Z,15.17
2024-01-26T18:32:00.397Z,17.50
2024-01-26T18:34:30.150Z,21.90
2024-01-26T18:36:58.426Z,13.30
2024-01-26T18:39:26.824Z,10.97
2024-01-26T18:41:55.059Z,11.00
2024-01-26T18:44:23.399Z,9.63
2024-01-26T18:46:51.566Z,17.57
2024-01-26T18:49:19.848Z,18.17
2024-01-26T18:51:49.428Z,13.63
2024-01-26T18:54:17.654Z,12.70
2024-01-26T18:56:46.023Z,17.50
2024-01-26T18:59:17.268Z,23.03
2024-01-26T19:01:46.069Z,29.60
2024-01-26T19:04:14.383Z,38.80
2024-01-26T19:06:43.072Z,38.13
2024-01-26T19:09:13.132Z,18.87
2024-01-26T19:11:43.165Z,20.33
2024-01-26T19:14:11.534Z,16.97
2024-01-26T19:16:39.989Z,24.43
2024-01-26T19:19:08.714Z,20.53
2024-01-26T19:21:37.013Z,23.67
2024-01-26T19:24:05.649Z,21.37
2024-01-26T19:26:36.122Z,17.57
2024-01-26T19:29:04.390Z,18.93
2024-01-26T19:31:32.645Z,18.93
2024-01-26T19:34:00.958Z,21.33
2024-01-26T19:36:29.265Z,15.77
2024-01-26T19:38:57.544Z,18.80
2024-01-26T19:41:25.731Z,20.73
2024-01-26T19:43:55.465Z,18.80
2024-01-26T19:46:23.889Z,17.73
2024-01-26T19:48:52.253Z,19.40
2024-01-26T19:51:21.084Z,17.50
2024-01-26T19:53:49.484Z,22.20
2024-01-26T19:56:17.856Z,22.70
2024-01-26T19:58:49.173Z,25.57
2024-01-26T20:01:18.796Z,18.73
2024-01-26T20:03:47.064Z,22.27
2024-01-26T20:06:15.614Z,22.83
2024-01-26T20:08:44.817Z,21.70
2024-01-26T20:11:14.132Z,20.80
2024-01-26T20:13:42.327Z,20.67
2024-01-26T20:16:10.675Z,17.57
2024-01-26T20:18:40.615Z,16.67
2024-01-26T20:21:11.227Z,19.17
2024-01-26T20:23:40.238Z,20.87
2024-01-26T20:26:09.230Z,21.03
2024-01-26T20:28:40.639Z,21.33
2024-01-26T20:31:12.020Z,24.17
2024-01-26T20:33:45.568Z,23.20
2024-01-26T20:36:15.099Z,30.97
2024-01-26T20:38:45.260Z,19.77
2024-01-26T20:41:13.766Z,23.37
2024-01-26T20:43:42.051Z,25.37
2024-01-26T20:46:10.605Z,17.67
2024-01-26T20:48:39.340Z,19.97
2024-01-26T20:51:10.284Z,22.50
2024-01-26T20:53:38.566Z,23.40
2024-01-26T20:56:07.374Z,22.97
2024-01-26T20:58:35.630Z,23.53
2024-01-26T21:01:04.354Z,19.73
2024-01-26T21:03:32.927Z,29.93
2024-01-26T21:06:01.409Z,24.90
2024-01-26T21:08:32.341Z,23.13
2024-01-26T21:11:00.504Z,25.90
2024-01-26T21:13:28.942Z,18.73
2024-01-26T21:15:57.230Z,16.60
2024-01-26T21:18:25.963Z,18.80
2024-01-26T21:20:54.774Z,24.13
2024-01-26T21:23:23.057Z,25.00
2024-01-26T21:25:53.410Z,19.63
2024-01-26T21:28:21.612Z,18.80
2024-01-26T21:30:50.873Z,18.23
2024-01-26T21:33:19.216Z,19.53
2024-01-26T21:35:47.834Z,23.17
2024-01-26T21:38:16.371Z,23.60
2024-01-26T21:40:44.583Z,19.80
2024-01-26T21:43:14.576Z,18.57
2024-01-26T21:45:42.953Z,21.50
2024-01-26T21:48:12.716Z,16.67
2024-01-26T21:50:41.335Z,20.30
2024-01-26T21:53:09.876Z,17.33
2024-01-26T21:55:41.603Z,16.30
2024-01-26T21:58:11.440Z,22.07
2024-01-26T22:00:41.556Z,20.67
2024-01-26T22:03:09.768Z,18.53
2024-01-26T22:05:38.318Z,16.00
2024-01-26T22:08:09.135Z,23.27
2024-01-26T22:10:37.355Z,16.73
2024-01-26T22:13:05.999Z,17.93
2024-01-26T22:15:34.168Z,24.17
2024-01-26T22:18:03.944Z,23.43
2024-01-26T22:20:32.177Z,15.97
2024-01-26T22:23:00.446Z,24.13
2024-01-26T22:25:28.715Z,21.57
2024-01-26T22:27:57.021Z,17.90
2024-01-26T22:30:25.198Z,21.47
2024-01-26T22:32:53.413Z,22.37
2024-01-26T22:35:23.128Z,23.90
2024-01-26T22:37:51.294Z,17.90
2024-01-26T22:40:19.681Z,20.07
2024-01-26T22:42:47.920Z,21.50
2024-01-26T22:45:16.096Z,20.47
2024-01-26T22:47:44.448Z,15.13
2024-01-26T22:50:12.726Z,17.20
2024-01-26T22:52:42.273Z,18.53
2024-01-26T22:55:10.585Z,14.97
2024-01-26T22:57:38.762Z,20.10
2024-01-26T23:00:09.528Z,17.33
2024-01-26T23:02:39.267Z,16.93
2024-01-26T23:05:09.736Z,25.60
2024-01-26T23:07:38.466Z,20.23
2024-01-26T23:10:09.355Z,20.40
2024-01-26T23:12:37.598Z,21.07
2024-01-26T23:15:06.675Z,20.90
2024-01-26T23:17:34.916Z,27.30
2024-01-26T23:20:03.663Z,20.30
2024-01-26T23:22:31.861Z,22.77
2024-01-26T23:25:00.098Z,12.73
2024-01-26T23:27:29.951Z,15.23
2024-01-26T23:29:58.188Z,24.63
2024-01-26T23:32:27.307Z,19.50
2024-01-26T23:34:55.673Z,19.77
2024-01-26T23:37:23.962Z,19.13
2024-01-26T23:39:52.496Z,19.83
2024-01-26T23:42:20.744Z,17.37
2024-01-26T23:44:50.359Z,23.67
2024-01-26T23:47:18.510Z,20.50
2024-01-26T23:49:46.820Z,17.53
2024-01-26T23:52:15.030Z,19.20
2024-01-26T23:54:43.203Z,22.40
2024-01-26T23:57:11.529Z,20.83
2024-01-26T23:59:39.724Z,18.27
